sensor_id;sensor_type;location;lat;lon;timestamp;P1;durP1;ratioP1;P2;durP2;ratioP2
37299;SDS011;23184;51.902;12.836;2023-03-23T00:01:20;3.17;;;1.58;;
37299;SDS011;23184;51.902;12.836;2023-03-23T00:03:47;5.50;;;2.20;;
37299;SDS011;23184;51.902;12.836;2023-03-23T00:06:15;6.70;;;2.00;;
37299;SDS011;23184;51.902;12.836;2023-03-23T00:08:45;3.03;;;1.80;;
37299;SDS011;23184;51.902;12.836;2023-03-23T00:11:19;4.50;;;1.67;;
37299;SDS011;23184;51.902;12.836;2023-03-23T00:13:46;3.75;;;1.85;;
37299;SDS011;23184;51.902;12.836;2023-03-23T00:16:16;5.07;;;1.73;;
37299;SDS011;23184;51.902;12.836;2023-03-23T00:18:47;3.47;;;1.55;;
37299;SDS011;23184;51.902;12.836;2023-03-23T00:21:17;3.22;;;1.60;;
37299;SDS011;23184;51.902;12.836;2023-03-23T00:23:43;2.70;;;1.63;;
37299;SDS011;23184;51.902;12.836;2023-03-23T00:26:10;6.68;;;2.10;;
37299;SDS011;23184;51.902;12.836;2023-03-23T00:28:36;3.20;;;1.60;;
37299;SDS011;23184;51.902;12.836;2023-03-23T00:31:04;2.38;;;1.55;;
37299;SDS011;23184;51.902;12.836;2023-03-23T00:33:32;3.72;;;1.90;;
37299;SDS011;23184;51.902;12.836;2023-03-23T00:36:03;3.05;;;1.73;;
37299;SDS011;23184;51.902;12.836;2023-03-23T00:38:30;3.25;;;1.73;;
37299;SDS011;23184;51.902;12.836;2023-03-23T00:40:56;2.75;;;1.70;;
37299;SDS011;23184;51.902;12.836;2023-03-23T00:43:22;4.70;;;1.50;;
37299;SDS011;23184;51.902;12.836;2023-03-23T00:45:49;3.13;;;1.67;;
37299;SDS011;23184;51.902;12.836;2023-03-23T00:48:19;3.25;;;1.65;;
37299;SDS011;23184;51.902;12.836;2023-03-23T00:50:45;3.20;;;1.70;;
37299;SDS011;23184;51.902;12.836;2023-03-23T00:53:11;4.47;;;1.60;;
37299;SDS011;23184;51.902;12.836;2023-03-23T00:55:37;3.95;;;1.90;;
37299;SDS011;23184;51.902;12.836;2023-03-23T00:58:02;2.80;;;1.35;;
37299;SDS011;23184;51.902;12.836;2023-03-23T01:00:28;1.83;;;1.42;;
37299;SDS011;23184;51.902;12.836;2023-03-23T01:02:54;2.90;;;1.60;;
37299;SDS011;23184;51.902;12.836;2023-03-23T01:05:20;3.53;;;1.88;;
37299;SDS011;23184;51.902;12.836;2023-03-23T01:07:45;2.97;;;1.40;;
37299;SDS011;23184;51.902;12.836;2023-03-23T01:10:12;4.63;;;1.73;;
37299;SDS011;23184;51.902;12.836;2023-03-23T01:12:41;3.28;;;1.40;;
37299;SDS011;23184;51.902;12.836;2023-03-23T01:15:08;2.83;;;1.30;;
37299;SDS011;23184;51.902;12.836;2023-03-23T01:17:37;4.25;;;1.70;;
37299;SDS011;23184;51.902;12.836;2023-03-23T01:20:03;3.22;;;1.67;;
37299;SDS011;23184;51.902;12.836;2023-03-23T01:22:29;3.20;;;1.80;;
37299;SDS011;23184;51.902;12.836;2023-03-23T01:24:57;3.95;;;1.58;;
37299;SDS011;23184;51.902;12.836;2023-03-23T01:27:22;2.70;;;1.52;;
37299;SDS011;23184;51.902;12.836;2023-03-23T01:29:48;3.60;;;1.60;;
37299;SDS011;23184;51.902;12.836;2023-03-23T01:32:14;1.88;;;1.35;;
37299;SDS011;23184;51.902;12.836;2023-03-23T01:34:40;5.70;;;1.52;;
37299;SDS011;23184;51.902;12.836;2023-03-23T01:37:05;3.55;;;1.40;;
37299;SDS011;23184;51.902;12.836;2023-03-23T01:39:31;2.60;;;1.35;;
37299;SDS011;23184;51.902;12.836;2023-03-23T01:41:56;1.77;;;1.30;;
37299;SDS011;23184;51.902;12.836;2023-03-23T01:46:47;4.13;;;1.35;;
37299;SDS011;23184;51.902;12.836;2023-03-23T01:49:15;2.35;;;1.23;;
37299;SDS011;23184;51.902;12.836;2023-03-23T01:51:44;5.32;;;1.70;;
37299;SDS011;23184;51.902;12.836;2023-03-23T01:54:13;3.88;;;1.20;;
37299;SDS011;23184;51.902;12.836;2023-03-23T01:56:51;3.35;;;1.55;;
37299;SDS011;23184;51.902;12.836;2023-03-23T01:59:27;2.00;;;1.30;;
37299;SDS011;23184;51.902;12.836;2023-03-23T02:01:54;1.83;;;1.20;;
37299;SDS011;23184;51.902;12.836;2023-03-23T02:04:20;3.45;;;1.30;;
37299;SDS011;23184;51.902;12.836;2023-03-23T02:06:49;2.30;;;1.25;;
37299;SDS011;23184;51.902;12.836;2023-03-23T02:09:16;3.53;;;1.20;;
37299;SDS011;23184;51.902;12.836;2023-03-23T02:11:42;2.55;;;1.38;;
37299;SDS011;23184;51.902;12.836;2023-03-23T02:14:09;3.45;;;1.65;;
37299;SDS011;23184;51.902;12.836;2023-03-23T02:16:40;5.50;;;1.45;;
37299;SDS011;23184;51.902;12.836;2023-03-23T02:27:26;2.95;;;1.30;;
37299;SDS011;23184;51.902;12.836;2023-03-23T02:35:43;3.33;;;1.08;;
37299;SDS011;23184;51.902;12.836;2023-03-23T02:38:16;2.72;;;1.55;;
37299;SDS011;23184;51.902;12.836;2023-03-23T02:40:46;2.95;;;1.42;;
37299;SDS011;23184;51.902;12.836;2023-03-23T02:43:16;2.00;;;1.15;;
37299;SDS011;23184;51.902;12.836;2023-03-23T02:45:46;6.72;;;1.50;;
37299;SDS011;23184;51.902;12.836;2023-03-23T02:48:13;2.38;;;1.30;;
37299;SDS011;23184;51.902;12.836;2023-03-23T02:50:43;1.83;;;1.10;;
37299;SDS011;23184;51.902;12.836;2023-03-23T02:53:12;3.45;;;1.33;;
37299;SDS011;23184;51.902;12.836;2023-03-23T02:55:42;2.58;;;1.58;;
37299;SDS011;23184;51.902;12.836;2023-03-23T02:58:09;3.72;;;1.30;;
37299;SDS011;23184;51.902;12.836;2023-03-23T03:00:35;1.55;;;1.13;;
37299;SDS011;23184;51.902;12.836;2023-03-23T03:03:03;4.68;;;1.23;;
37299;SDS011;23184;51.902;12.836;2023-03-23T03:10:46;1.20;;;0.90;;
37299;SDS011;23184;51.902;12.836;2023-03-23T03:16:13;3.53;;;1.77;;
37299;SDS011;23184;51.902;12.836;2023-03-23T03:18:44;3.45;;;1.00;;
37299;SDS011;23184;51.902;12.836;2023-03-23T03:21:20;2.30;;;0.95;;
37299;SDS011;23184;51.902;12.836;2023-03-23T03:23:50;1.65;;;1.00;;
37299;SDS011;23184;51.902;12.836;2023-03-23T03:26:21;3.10;;;1.10;;
37299;SDS011;23184;51.902;12.836;2023-03-23T03:28:51;1.90;;;1.10;;
37299;SDS011;23184;51.902;12.836;2023-03-23T03:31:18;3.78;;;1.10;;
37299;SDS011;23184;51.902;12.836;2023-03-23T03:33:46;1.25;;;0.88;;
37299;SDS011;23184;51.902;12.836;2023-03-23T03:36:16;3.38;;;1.02;;
37299;SDS011;23184;51.902;12.836;2023-03-23T03:38:45;3.70;;;1.08;;
37299;SDS011;23184;51.902;12.836;2023-03-23T03:41:13;0.95;;;0.88;;
37299;SDS011;23184;51.902;12.836;2023-03-23T03:43:39;3.03;;;0.95;;
37299;SDS011;23184;51.902;12.836;2023-03-23T03:46:05;1.98;;;0.90;;
37299;SDS011;23184;51.902;12.836;2023-03-23T03:48:30;2.03;;;1.17;;
37299;SDS011;23184;51.902;12.836;2023-03-23T03:50:56;4.32;;;1.10;;
37299;SDS011;23184;51.902;12.836;2023-03-23T03:53:22;4.20;;;1.50;;
37299;SDS011;23184;51.902;12.836;2023-03-23T03:55:48;2.78;;;1.05;;
37299;SDS011;23184;51.902;12.836;2023-03-23T03:58:15;3.25;;;0.90;;
37299;SDS011;23184;51.902;12.836;2023-03-23T04:00:41;2.97;;;0.93;;
37299;SDS011;23184;51.902;12.836;2023-03-23T04:03:08;2.83;;;1.10;;
37299;SDS011;23184;51.902;12.836;2023-03-23T04:05:33;2.20;;;1.00;;
37299;SDS011;23184;51.902;12.836;2023-03-23T04:08:01;1.63;;;1.10;;
37299;SDS011;23184;51.902;12.836;2023-03-23T04:10:27;1.95;;;1.00;;
37299;SDS011;23184;51.902;12.836;2023-03-23T04:12:55;2.60;;;0.98;;
37299;SDS011;23184;51.902;12.836;2023-03-23T04:15:21;1.38;;;1.00;;
37299;SDS011;23184;51.902;12.836;2023-03-23T04:17:47;1.75;;;1.10;;
37299;SDS011;23184;51.902;12.836;2023-03-23T04:20:12;3.58;;;1.30;;
37299;SDS011;23184;51.902;12.836;2023-03-23T04:22:42;2.22;;;1.10;;
37299;SDS011;23184;51.902;12.836;2023-03-23T04:25:14;4.72;;;1.00;;
37299;SDS011;23184;51.902;12.836;2023-03-23T04:27:42;4.07;;;1.23;;
37299;SDS011;23184;51.902;12.836;2023-03-23T04:30:08;1.90;;;1.20;;
37299;SDS011;23184;51.902;12.836;2023-03-23T04:32:36;2.63;;;1.10;;
37299;SDS011;23184;51.902;12.836;2023-03-23T04:35:05;2.70;;;1.42;;
37299;SDS011;23184;51.902;12.836;2023-03-23T04:37:31;2.75;;;1.10;;
37299;SDS011;23184;51.902;12.836;2023-03-23T04:39:57;1.58;;;1.10;;
37299;SDS011;23184;51.902;12.836;2023-03-23T04:42:29;2.10;;;1.02;;
37299;SDS011;23184;51.902;12.836;2023-03-23T04:44:59;3.97;;;1.40;;
37299;SDS011;23184;51.902;12.836;2023-03-23T04:47:25;3.22;;;1.65;;
37299;SDS011;23184;51.902;12.836;2023-03-23T04:49:55;2.60;;;1.20;;
37299;SDS011;23184;51.902;12.836;2023-03-23T04:52:21;3.25;;;1.13;;
37299;SDS011;23184;51.902;12.836;2023-03-23T04:54:46;2.05;;;1.50;;
37299;SDS011;23184;51.902;12.836;2023-03-23T04:57:12;2.55;;;1.05;;
37299;SDS011;23184;51.902;12.836;2023-03-23T04:59:40;5.20;;;1.38;;
37299;SDS011;23184;51.902;12.836;2023-03-23T05:02:06;3.17;;;0.88;;
37299;SDS011;23184;51.902;12.836;2023-03-23T05:04:31;3.05;;;1.30;;
37299;SDS011;23184;51.902;12.836;2023-03-23T05:06:58;3.00;;;1.02;;
37299;SDS011;23184;51.902;12.836;2023-03-23T05:09:23;9.43;;;1.15;;
37299;SDS011;23184;51.902;12.836;2023-03-23T05:11:49;5.40;;;1.65;;
37299;SDS011;23184;51.902;12.836;2023-03-23T05:14:14;3.22;;;1.15;;
37299;SDS011;23184;51.902;12.836;2023-03-23T05:16:40;6.15;;;1.48;;
37299;SDS011;23184;51.902;12.836;2023-03-23T05:19:05;5.05;;;1.83;;
37299;SDS011;23184;51.902;12.836;2023-03-23T05:21:32;4.47;;;1.33;;
37299;SDS011;23184;51.902;12.836;2023-03-23T05:23:59;2.83;;;1.20;;
37299;SDS011;23184;51.902;12.836;2023-03-23T05:26:25;3.25;;;1.48;;
37299;SDS011;23184;51.902;12.836;2023-03-23T05:28:54;1.73;;;1.27;;
37299;SDS011;23184;51.902;12.836;2023-03-23T05:31:21;2.67;;;1.67;;
37299;SDS011;23184;51.902;12.836;2023-03-23T05:33:46;6.10;;;1.50;;
37299;SDS011;23184;51.902;12.836;2023-03-23T05:36:12;3.90;;;1.70;;
37299;SDS011;23184;51.902;12.836;2023-03-23T05:38:39;3.80;;;1.40;;
37299;SDS011;23184;51.902;12.836;2023-03-23T05:41:09;3.92;;;1.63;;
37299;SDS011;23184;51.902;12.836;2023-03-23T05:43:34;4.95;;;1.38;;
37299;SDS011;23184;51.902;12.836;2023-03-23T05:46:00;3.53;;;1.70;;
37299;SDS011;23184;51.902;12.836;2023-03-23T05:48:26;3.20;;;1.48;;
37299;SDS011;23184;51.902;12.836;2023-03-23T05:50:52;6.07;;;1.85;;
37299;SDS011;23184;51.902;12.836;2023-03-23T05:53:17;3.75;;;1.70;;
37299;SDS011;23184;51.902;12.836;2023-03-23T05:55:43;3.33;;;1.92;;
37299;SDS011;23184;51.902;12.836;2023-03-23T05:58:08;2.85;;;1.60;;
37299;SDS011;23184;51.902;12.836;2023-03-23T06:00:34;3.15;;;1.65;;
37299;SDS011;23184;51.902;12.836;2023-03-23T06:03:00;5.53;;;1.60;;
37299;SDS011;23184;51.902;12.836;2023-03-23T06:05:26;4.07;;;1.60;;
37299;SDS011;23184;51.902;12.836;2023-03-23T06:07:51;2.65;;;1.50;;
37299;SDS011;23184;51.902;12.836;2023-03-23T06:10:18;1.83;;;1.42;;
37299;SDS011;23184;51.902;12.836;2023-03-23T06:12:44;5.03;;;2.05;;
37299;SDS011;23184;51.902;12.836;2023-03-23T06:15:10;4.40;;;1.83;;
37299;SDS011;23184;51.902;12.836;2023-03-23T06:17:36;7.18;;;2.33;;
37299;SDS011;23184;51.902;12.836;2023-03-23T06:20:05;1.88;;;1.27;;
37299;SDS011;23184;51.902;12.836;2023-03-23T06:22:35;1.70;;;1.38;;
37299;SDS011;23184;51.902;12.836;2023-03-23T06:25:01;2.55;;;1.38;;
37299;SDS011;23184;51.902;12.836;2023-03-23T06:27:27;1.42;;;1.30;;
37299;SDS011;23184;51.902;12.836;2023-03-23T06:29:52;4.93;;;1.52;;
37299;SDS011;23184;51.902;12.836;2023-03-23T06:32:20;2.50;;;1.30;;
37299;SDS011;23184;51.902;12.836;2023-03-23T06:34:47;3.78;;;1.58;;
37299;SDS011;23184;51.902;12.836;2023-03-23T06:37:13;2.75;;;1.60;;
37299;SDS011;23184;51.902;12.836;2023-03-23T06:39:38;3.92;;;1.70;;
37299;SDS011;23184;51.902;12.836;2023-03-23T06:42:04;7.22;;;1.58;;
37299;SDS011;23184;51.902;12.836;2023-03-23T06:44:30;2.63;;;1.63;;
37299;SDS011;23184;51.902;12.836;2023-03-23T06:46:55;3.28;;;1.42;;
37299;SDS011;23184;51.902;12.836;2023-03-23T06:49:21;5.25;;;1.65;;
37299;SDS011;23184;51.902;12.836;2023-03-23T06:51:47;4.10;;;1.55;;
37299;SDS011;23184;51.902;12.836;2023-03-23T06:54:13;4.70;;;1.80;;
37299;SDS011;23184;51.902;12.836;2023-03-23T06:56:38;3.30;;;1.80;;
37299;SDS011;23184;51.902;12.836;2023-03-23T06:59:04;5.43;;;2.08;;
37299;SDS011;23184;51.902;12.836;2023-03-23T07:01:30;3.08;;;1.73;;
37299;SDS011;23184;51.902;12.836;2023-03-23T07:03:55;5.07;;;1.75;;
37299;SDS011;23184;51.902;12.836;2023-03-23T07:06:21;5.32;;;2.13;;
37299;SDS011;23184;51.902;12.836;2023-03-23T07:08:48;4.07;;;2.35;;
37299;SDS011;23184;51.902;12.836;2023-03-23T07:11:14;3.97;;;2.10;;
37299;SDS011;23184;51.902;12.836;2023-03-23T07:13:40;5.60;;;2.20;;
37299;SDS011;23184;51.902;12.836;2023-03-23T07:16:05;6.65;;;2.17;;
37299;SDS011;23184;51.902;12.836;2023-03-23T07:18:31;4.78;;;2.28;;
37299;SDS011;23184;51.902;12.836;2023-03-23T07:20:57;5.75;;;2.50;;
37299;SDS011;23184;51.902;12.836;2023-03-23T07:23:22;7.13;;;2.47;;
37299;SDS011;23184;51.902;12.836;2023-03-23T07:25:48;4.88;;;2.20;;
37299;SDS011;23184;51.902;12.836;2023-03-23T07:28:13;9.00;;;2.47;;
37299;SDS011;23184;51.902;12.836;2023-03-23T07:30:40;3.58;;;2.50;;
37299;SDS011;23184;51.902;12.836;2023-03-23T07:33:07;5.20;;;1.92;;
37299;SDS011;23184;51.902;12.836;2023-03-23T07:35:33;4.53;;;2.25;;
37299;SDS011;23184;51.902;12.836;2023-03-23T07:37:59;5.30;;;3.00;;
37299;SDS011;23184;51.902;12.836;2023-03-23T07:40:25;6.53;;;2.58;;
37299;SDS011;23184;51.902;12.836;2023-03-23T07:42:55;6.72;;;2.10;;
37299;SDS011;23184;51.902;12.836;2023-03-23T07:45:22;4.22;;;2.00;;
37299;SDS011;23184;51.902;12.836;2023-03-23T07:47:48;5.68;;;2.10;;
37299;SDS011;23184;51.902;12.836;2023-03-23T07:50:14;5.25;;;2.08;;
37299;SDS011;23184;51.902;12.836;2023-03-23T07:52:39;4.07;;;2.20;;
37299;SDS011;23184;51.902;12.836;2023-03-23T07:55:07;4.63;;;2.03;;
37299;SDS011;23184;51.902;12.836;2023-03-23T07:57:36;8.55;;;2.17;;
37299;SDS011;23184;51.902;12.836;2023-03-23T08:00:03;3.47;;;1.80;;
37299;SDS011;23184;51.902;12.836;2023-03-23T08:02:36;4.00;;;2.55;;
37299;SDS011;23184;51.902;12.836;2023-03-23T08:05:01;2.75;;;1.77;;
37299;SDS011;23184;51.902;12.836;2023-03-23T08:07:27;3.70;;;2.03;;
37299;SDS011;23184;51.902;12.836;2023-03-23T08:09:52;6.03;;;2.10;;
37299;SDS011;23184;51.902;12.836;2023-03-23T08:12:18;3.25;;;2.00;;
37299;SDS011;23184;51.902;12.836;2023-03-23T08:14:43;2.70;;;1.92;;
37299;SDS011;23184;51.902;12.836;2023-03-23T08:17:09;2.38;;;1.80;;
37299;SDS011;23184;51.902;12.836;2023-03-23T08:19:35;3.15;;;1.98;;
37299;SDS011;23184;51.902;12.836;2023-03-23T08:22:02;3.60;;;1.90;;
37299;SDS011;23184;51.902;12.836;2023-03-23T08:24:29;3.03;;;2.13;;
37299;SDS011;23184;51.902;12.836;2023-03-23T08:26:55;5.60;;;2.22;;
37299;SDS011;23184;51.902;12.836;2023-03-23T08:29:20;2.08;;;1.40;;
37299;SDS011;23184;51.902;12.836;2023-03-23T08:31:46;2.58;;;1.70;;
37299;SDS011;23184;51.902;12.836;2023-03-23T08:34:12;4.20;;;1.63;;
37299;SDS011;23184;51.902;12.836;2023-03-23T08:36:38;5.97;;;1.90;;
37299;SDS011;23184;51.902;12.836;2023-03-23T08:39:03;5.68;;;2.28;;
37299;SDS011;23184;51.902;12.836;2023-03-23T08:41:30;4.18;;;2.15;;
37299;SDS011;23184;51.902;12.836;2023-03-23T08:43:56;3.80;;;2.30;;
37299;SDS011;23184;51.902;12.836;2023-03-23T08:46:22;3.05;;;2.17;;
37299;SDS011;23184;51.902;12.836;2023-03-23T08:48:48;3.35;;;2.17;;
37299;SDS011;23184;51.902;12.836;2023-03-23T08:51:13;2.42;;;1.70;;
37299;SDS011;23184;51.902;12.836;2023-03-23T08:53:39;4.57;;;1.83;;
37299;SDS011;23184;51.902;12.836;2023-03-23T08:56:05;2.47;;;1.40;;
37299;SDS011;23184;51.902;12.836;2023-03-23T08:58:33;1.77;;;1.40;;
37299;SDS011;23184;51.902;12.836;2023-03-23T09:01:02;2.80;;;2.00;;
37299;SDS011;23184;51.902;12.836;2023-03-23T09:03:30;3.03;;;1.55;;
37299;SDS011;23184;51.902;12.836;2023-03-23T09:06:02;4.28;;;1.90;;
37299;SDS011;23184;51.902;12.836;2023-03-23T09:08:29;4.50;;;2.00;;
37299;SDS011;23184;51.902;12.836;2023-03-23T09:10:59;3.17;;;1.50;;
37299;SDS011;23184;51.902;12.836;2023-03-23T09:13:27;2.17;;;1.70;;
37299;SDS011;23184;51.902;12.836;2023-03-23T09:15:52;4.35;;;1.70;;
37299;SDS011;23184;51.902;12.836;2023-03-23T09:18:18;2.63;;;1.40;;
37299;SDS011;23184;51.902;12.836;2023-03-23T09:20:44;3.63;;;1.67;;
37299;SDS011;23184;51.902;12.836;2023-03-23T09:23:10;3.30;;;1.60;;
37299;SDS011;23184;51.902;12.836;2023-03-23T09:25:38;3.20;;;1.58;;
37299;SDS011;23184;51.902;12.836;2023-03-23T09:28:03;3.13;;;1.33;;
37299;SDS011;23184;51.902;12.836;2023-03-23T09:30:31;2.92;;;1.40;;
37299;SDS011;23184;51.902;12.836;2023-03-23T09:32:59;2.65;;;1.50;;
37299;SDS011;23184;51.902;12.836;2023-03-23T09:35:26;3.83;;;1.70;;
37299;SDS011;23184;51.902;12.836;2023-03-23T09:37:52;4.10;;;1.80;;
37299;SDS011;23184;51.902;12.836;2023-03-23T09:40:22;3.15;;;1.40;;
37299;SDS011;23184;51.902;12.836;2023-03-23T09:42:53;2.72;;;1.52;;
37299;SDS011;23184;51.902;12.836;2023-03-23T09:46:11;3.13;;;1.50;;
37299;SDS011;23184;51.902;12.836;2023-03-23T09:54:10;2.22;;;1.38;;
37299;SDS011;23184;51.902;12.836;2023-03-23T09:56:36;3.63;;;1.77;;
37299;SDS011;23184;51.902;12.836;2023-03-23T10:01:57;3.85;;;1.67;;
37299;SDS011;23184;51.902;12.836;2023-03-23T10:04:47;3.05;;;1.67;;
37299;SDS011;23184;51.902;12.836;2023-03-23T10:09:49;3.25;;;1.70;;
37299;SDS011;23184;51.902;12.836;2023-03-23T10:12:26;3.50;;;1.40;;
37299;SDS011;23184;51.902;12.836;2023-03-23T10:17:30;2.42;;;1.60;;
37299;SDS011;23184;51.902;12.836;2023-03-23T10:22:33;4.78;;;1.75;;
37299;SDS011;23184;51.902;12.836;2023-03-23T10:30:27;2.70;;;1.60;;
37299;SDS011;23184;51.902;12.836;2023-03-23T10:33:20;2.83;;;1.75;;
37299;SDS011;23184;51.902;12.836;2023-03-23T10:36:10;2.35;;;1.60;;
37299;SDS011;23184;51.902;12.836;2023-03-23T10:38:53;3.60;;;2.13;;
37299;SDS011;23184;51.902;12.836;2023-03-23T10:41:36;7.43;;;2.15;;
37299;SDS011;23184;51.902;12.836;2023-03-23T10:44:07;3.78;;;1.88;;
37299;SDS011;23184;51.902;12.836;2023-03-23T10:49:28;2.92;;;1.77;;
37299;SDS011;23184;51.902;12.836;2023-03-23T10:52:42;2.28;;;1.65;;
37299;SDS011;23184;51.902;12.836;2023-03-23T10:54:54;3.67;;;1.85;;
37299;SDS011;23184;51.902;12.836;2023-03-23T10:59:50;3.60;;;2.50;;
37299;SDS011;23184;51.902;12.836;2023-03-23T11:02:17;5.07;;;3.22;;
37299;SDS011;23184;51.902;12.836;2023-03-23T11:04:53;5.57;;;2.70;;
37299;SDS011;23184;51.902;12.836;2023-03-23T11:07:31;4.53;;;2.70;;
37299;SDS011;23184;51.902;12.836;2023-03-23T11:10:04;3.92;;;2.70;;
37299;SDS011;23184;51.902;12.836;2023-03-23T11:12:33;4.28;;;2.10;;
37299;SDS011;23184;51.902;12.836;2023-03-23T11:18:06;3.72;;;1.98;;
37299;SDS011;23184;51.902;12.836;2023-03-23T11:20:37;2.83;;;1.80;;
37299;SDS011;23184;51.902;12.836;2023-03-23T11:26:11;2.75;;;1.95;;
37299;SDS011;23184;51.902;12.836;2023-03-23T11:29:03;6.10;;;2.35;;
37299;SDS011;23184;51.902;12.836;2023-03-23T11:31:39;2.47;;;1.80;;
37299;SDS011;23184;51.902;12.836;2023-03-23T11:34:18;4.25;;;2.08;;
37299;SDS011;23184;51.902;12.836;2023-03-23T11:36:50;2.97;;;1.98;;
37299;SDS011;23184;51.902;12.836;2023-03-23T11:39:24;3.13;;;1.77;;
37299;SDS011;23184;51.902;12.836;2023-03-23T11:41:52;4.13;;;2.05;;
37299;SDS011;23184;51.902;12.836;2023-03-23T11:44:20;3.38;;;2.08;;
37299;SDS011;23184;51.902;12.836;2023-03-23T11:46:49;3.70;;;2.03;;
37299;SDS011;23184;51.902;12.836;2023-03-23T11:49:57;2.85;;;1.60;;
37299;SDS011;23184;51.902;12.836;2023-03-23T11:55:13;7.03;;;1.88;;
37299;SDS011;23184;51.902;12.836;2023-03-23T11:57:44;2.83;;;1.67;;
37299;SDS011;23184;51.902;12.836;2023-03-23T12:00:16;3.50;;;1.90;;
37299;SDS011;23184;51.902;12.836;2023-03-23T12:02:50;3.03;;;1.80;;
37299;SDS011;23184;51.902;12.836;2023-03-23T12:05:28;2.83;;;1.80;;
37299;SDS011;23184;51.902;12.836;2023-03-23T12:08:27;6.88;;;1.63;;
37299;SDS011;23184;51.902;12.836;2023-03-23T12:25:01;3.15;;;1.63;;
37299;SDS011;23184;51.902;12.836;2023-03-23T12:30:29;3.00;;;1.60;;
37299;SDS011;23184;51.902;12.836;2023-03-23T12:33:14;4.82;;;1.67;;
37299;SDS011;23184;51.902;12.836;2023-03-23T12:35:50;4.63;;;1.80;;
37299;SDS011;23184;51.902;12.836;2023-03-23T12:39:08;5.47;;;2.50;;
37299;SDS011;23184;51.902;12.836;2023-03-23T12:41:35;3.00;;;1.70;;
37299;SDS011;23184;51.902;12.836;2023-03-23T12:44:22;2.40;;;1.50;;
37299;SDS011;23184;51.902;12.836;2023-03-23T12:49:58;3.35;;;1.48;;
37299;SDS011;23184;51.902;12.836;2023-03-23T12:52:53;3.95;;;1.45;;
37299;SDS011;23184;51.902;12.836;2023-03-23T12:55:35;4.55;;;1.35;;
37299;SDS011;23184;51.902;12.836;2023-03-23T12:58:16;3.60;;;1.30;;
37299;SDS011;23184;51.902;12.836;2023-03-23T13:00:59;2.30;;;1.20;;
37299;SDS011;23184;51.902;12.836;2023-03-23T13:06:39;1.83;;;1.30;;
37299;SDS011;23184;51.902;12.836;2023-03-23T13:09:11;5.30;;;1.45;;
37299;SDS011;23184;51.902;12.836;2023-03-23T13:11:39;5.25;;;1.60;;
37299;SDS011;23184;51.902;12.836;2023-03-23T13:14:26;3.42;;;1.38;;
37299;SDS011;23184;51.902;12.836;2023-03-23T13:19:45;3.72;;;1.50;;
37299;SDS011;23184;51.902;12.836;2023-03-23T13:25:30;3.13;;;1.52;;
37299;SDS011;23184;51.902;12.836;2023-03-23T13:28:03;2.78;;;1.33;;
37299;SDS011;23184;51.902;12.836;2023-03-23T13:30:29;2.33;;;1.52;;
37299;SDS011;23184;51.902;12.836;2023-03-23T13:33:02;3.58;;;1.55;;
37299;SDS011;23184;51.902;12.836;2023-03-23T13:35:33;4.18;;;1.45;;
37299;SDS011;23184;51.902;12.836;2023-03-23T13:38:02;3.53;;;1.50;;
37299;SDS011;23184;51.902;12.836;2023-03-23T13:40:44;2.85;;;1.30;;
37299;SDS011;23184;51.902;12.836;2023-03-23T13:43:11;3.15;;;1.63;;
37299;SDS011;23184;51.902;12.836;2023-03-23T13:45:43;2.40;;;1.30;;
37299;SDS011;23184;51.902;12.836;2023-03-23T13:50:59;4.60;;;1.73;;
37299;SDS011;23184;51.902;12.836;2023-03-23T13:53:43;3.88;;;1.70;;
37299;SDS011;23184;51.902;12.836;2023-03-23T14:01:30;2.63;;;1.50;;
37299;SDS011;23184;51.902;12.836;2023-03-23T14:04:01;4.18;;;1.67;;
37299;SDS011;23184;51.902;12.836;2023-03-23T14:06:34;5.03;;;1.40;;
37299;SDS011;23184;51.902;12.836;2023-03-23T14:09:05;3.17;;;1.08;;
37299;SDS011;23184;51.902;12.836;2023-03-23T14:11:44;2.38;;;1.23;;
37299;SDS011;23184;51.902;12.836;2023-03-23T14:14:26;2.95;;;1.30;;
37299;SDS011;23184;51.902;12.836;2023-03-23T14:17:18;3.65;;;1.40;;
37299;SDS011;23184;51.902;12.836;2023-03-23T14:19:53;3.60;;;1.17;;
37299;SDS011;23184;51.902;12.836;2023-03-23T14:22:24;4.28;;;1.27;;
37299;SDS011;23184;51.902;12.836;2023-03-23T14:24:52;3.00;;;1.25;;
37299;SDS011;23184;51.902;12.836;2023-03-23T14:27:38;1.92;;;1.40;;
37299;SDS011;23184;51.902;12.836;2023-03-23T14:30:14;2.47;;;1.40;;
37299;SDS011;23184;51.902;12.836;2023-03-23T14:32:42;1.80;;;1.00;;
37299;SDS011;23184;51.902;12.836;2023-03-23T14:35:30;2.65;;;1.20;;
37299;SDS011;23184;51.902;12.836;2023-03-23T14:37:56;3.33;;;1.20;;
37299;SDS011;23184;51.902;12.836;2023-03-23T14:40:22;2.70;;;1.27;;
37299;SDS011;23184;51.902;12.836;2023-03-23T14:42:51;1.88;;;1.30;;
37299;SDS011;23184;51.902;12.836;2023-03-23T14:45:19;3.20;;;1.30;;
37299;SDS011;23184;51.902;12.836;2023-03-23T14:47:47;3.28;;;1.20;;
37299;SDS011;23184;51.902;12.836;2023-03-23T14:50:26;3.92;;;1.30;;
37299;SDS011;23184;51.902;12.836;2023-03-23T14:52:58;5.22;;;1.65;;
37299;SDS011;23184;51.902;12.836;2023-03-23T14:55:25;1.63;;;1.25;;
37299;SDS011;23184;51.902;12.836;2023-03-23T14:57:56;3.30;;;1.40;;
37299;SDS011;23184;51.902;12.836;2023-03-23T15:00:33;2.65;;;1.33;;
37299;SDS011;23184;51.902;12.836;2023-03-23T15:03:02;4.47;;;1.20;;
37299;SDS011;23184;51.902;12.836;2023-03-23T15:05:31;2.80;;;1.10;;
37299;SDS011;23184;51.902;12.836;2023-03-23T15:08:05;3.67;;;1.35;;
37299;SDS011;23184;51.902;12.836;2023-03-23T15:10:32;1.88;;;1.10;;
37299;SDS011;23184;51.902;12.836;2023-03-23T15:12:58;3.30;;;0.90;;
37299;SDS011;23184;51.902;12.836;2023-03-23T15:15:34;2.05;;;1.00;;
37299;SDS011;23184;51.902;12.836;2023-03-23T15:18:01;3.78;;;1.30;;
37299;SDS011;23184;51.902;12.836;2023-03-23T15:20:29;2.20;;;1.30;;
37299;SDS011;23184;51.902;12.836;2023-03-23T15:23:07;1.75;;;1.00;;
37299;SDS011;23184;51.902;12.836;2023-03-23T15:25:33;1.48;;;1.20;;
37299;SDS011;23184;51.902;12.836;2023-03-23T15:35:26;2.33;;;1.10;;
37299;SDS011;23184;51.902;12.836;2023-03-23T15:37:59;1.90;;;1.10;;
37299;SDS011;23184;51.902;12.836;2023-03-23T15:40:38;2.50;;;1.48;;
37299;SDS011;23184;51.902;12.836;2023-03-23T15:43:14;4.03;;;1.50;;
37299;SDS011;23184;51.902;12.836;2023-03-23T15:45:54;1.95;;;1.02;;
37299;SDS011;23184;51.902;12.836;2023-03-23T15:48:51;3.30;;;1.30;;
37299;SDS011;23184;51.902;12.836;2023-03-23T15:51:23;4.35;;;1.10;;
37299;SDS011;23184;51.902;12.836;2023-03-23T15:53:51;2.85;;;1.40;;
37299;SDS011;23184;51.902;12.836;2023-03-23T15:56:18;2.28;;;1.25;;
37299;SDS011;23184;51.902;12.836;2023-03-23T15:58:44;3.60;;;1.67;;
37299;SDS011;23184;51.902;12.836;2023-03-23T16:01:12;1.20;;;0.93;;
37299;SDS011;23184;51.902;12.836;2023-03-23T16:03:45;4.38;;;0.98;;
37299;SDS011;23184;51.902;12.836;2023-03-23T16:06:14;1.63;;;1.02;;
37299;SDS011;23184;51.902;12.836;2023-03-23T16:08:42;1.85;;;1.27;;
37299;SDS011;23184;51.902;12.836;2023-03-23T16:11:11;1.63;;;1.15;;
37299;SDS011;23184;51.902;12.836;2023-03-23T16:13:39;2.10;;;1.20;;
37299;SDS011;23184;51.902;12.836;2023-03-23T16:16:05;5.28;;;1.30;;
37299;SDS011;23184;51.902;12.836;2023-03-23T16:18:36;3.35;;;1.25;;
37299;SDS011;23184;51.902;12.836;2023-03-23T16:21:02;3.65;;;1.30;;
37299;SDS011;23184;51.902;12.836;2023-03-23T16:23:28;4.13;;;2.33;;
37299;SDS011;23184;51.902;12.836;2023-03-23T16:25:53;1.95;;;1.10;;
37299;SDS011;23184;51.902;12.836;2023-03-23T16:28:19;2.78;;;1.60;;
37299;SDS011;23184;51.902;12.836;2023-03-23T16:30:45;3.28;;;1.40;;
37299;SDS011;23184;51.902;12.836;2023-03-23T16:33:11;2.83;;;1.40;;